Hauptseite
METAR-TAF:

METAR-TAF

Flughäfen :

Tahiti, Französisch-Polynesien

Flughafen Tahiti

Breite: 17-33S, Länge: 149-37W, Höhe: 2 m

Beobachtung

Neuester Wetterbericht von vor 10 Minuten, um 12:00 UTC
Wind 3 kt aus Süd/Südost
Temperatur 22°C
Luftfeuchtigkeit 73%
Luftdruck 1015 hPa
Sichtweite 10 km oder mehr
Leicht bewölkt in der Höhe von 2300 ft

METAR: NTAA 211200Z 15003KT 9999 FEW023 22/17 Q1015 NOSIG

Zeit: 02:10 (12:10 UTC)

Prognose

Neuester Wetterbericht von vor 1 Stunde und 10 Minuten, um 11:00 UTC
Gültige Prognose vom 21 um 12 UTC bis 22 um 18 UTC
Wind 5 kt aus unterschiedlichen Richtungen
Sichtweite 10 km oder mehr
Leicht bewölkt in der Höhe von 2300 ft
Aufgelockert bewölkt in der Höhe von 5500 ft

TAF: NTAA 211100Z 2112/2218 VRB05KT 9999 FEW023 SCT055

Wetterbeobachtungen und Prognosen von mehr als 4000 Flughäfen (METAR und TAF Bericht).

Die verfügbaren Stationen werden durch gelbe und rote Markierungen auf der Karte dargestellt.

Führen Sie die Maus auf sie, um den Namen der Station zu sehen.

Darauf klicken, um die Beobachtung von Wetterbeobachtungen und Prognosen zu sehen.

Um die Karte zu ändern : klicken Sie auf den grünen Tasten mit einem schwarzen Kreuz Zum Vergrößern, auf den grünen Button mit einem Gedankenstrich zu verkleinern, oder auf die grünen Pfeile für benachbarte Karten.


METAR-TAF: